createdAt,value
2023-03-03T00:03:23.631Z,76.93
2023-03-03T00:08:26.697Z,72.00
2023-03-03T00:13:32.209Z,66.10
2023-03-03T00:18:37.842Z,75.47
2023-03-03T00:23:42.572Z,78.90
2023-03-03T00:28:48.345Z,80.00
2023-03-03T00:33:54.674Z,86.43
2023-03-03T00:39:11.947Z,72.80
2023-03-03T00:44:34.371Z,68.70
2023-03-03T00:49:37.886Z,72.43
2023-03-03T00:54:40.584Z,68.70
2023-03-03T00:59:44.572Z,79.07
2023-03-03T01:04:52.105Z,73.23
2023-03-03T01:09:54.740Z,76.63
2023-03-03T01:14:58.865Z,65.80
2023-03-03T01:20:01.545Z,63.23
2023-03-03T01:25:04.797Z,60.50
2023-03-03T01:30:10.329Z,66.60
2023-03-03T01:35:13.074Z,68.70
2023-03-03T01:40:19.182Z,65.87
2023-03-03T01:45:25.667Z,66.17
2023-03-03T01:50:36.772Z,61.03
2023-03-03T01:55:42.102Z,66.20
2023-03-03T02:00:51.430Z,62.80
2023-03-03T02:05:56.700Z,62.40
2023-03-03T02:10:59.453Z,62.87
2023-03-03T02:16:03.873Z,68.00
2023-03-03T02:21:11.038Z,68.23
2023-03-03T02:26:17.000Z,67.40
2023-03-03T02:31:23.122Z,119.17
2023-03-03T02:36:28.354Z,67.80
2023-03-03T02:41:36.330Z,81.20
2023-03-03T02:46:40.627Z,73.40
2023-03-03T02:51:45.361Z,72.67
2023-03-03T02:56:49.830Z,70.40
2023-03-03T03:01:52.911Z,70.73
2023-03-03T03:06:56.588Z,64.57
2023-03-03T03:12:02.446Z,69.77
2023-03-03T03:17:05.463Z,69.57
2023-03-03T03:22:08.194Z,65.63
2023-03-03T03:27:12.188Z,69.97
2023-03-03T03:32:14.893Z,61.23
2023-03-03T03:37:19.950Z,63.87
2023-03-03T03:42:23.992Z,63.03
2023-03-03T03:47:26.683Z,64.07
2023-03-03T03:52:29.363Z,67.43
2023-03-03T03:57:33.476Z,62.50
2023-03-03T04:02:36.429Z,59.17
2023-03-03T04:07:39.234Z,77.67
2023-03-03T04:12:43.297Z,61.33
2023-03-03T04:17:45.955Z,54.40
2023-03-03T04:22:49.193Z,57.10
2023-03-03T04:27:54.300Z,56.77
2023-03-03T04:32:56.992Z,58.67
2023-03-03T04:37:59.924Z,60.87
2023-03-03T04:43:04.154Z,55.47
2023-03-03T04:48:07.553Z,56.77
2023-03-03T04:53:10.283Z,49.27
2023-03-03T04:58:14.417Z,52.00
2023-03-03T05:03:17.068Z,51.40
2023-03-03T05:08:19.817Z,42.10
2023-03-03T05:13:23.857Z,46.13
2023-03-03T05:18:27.514Z,45.53
2023-03-03T05:23:31.286Z,47.97
2023-03-03T05:28:35.615Z,50.23
2023-03-03T05:33:38.244Z,54.13
2023-03-03T05:38:41.022Z,61.30
2023-03-03T05:43:45.080Z,54.80
2023-03-03T05:48:48.131Z,60.53
2023-03-03T05:53:50.859Z,57.13
2023-03-03T05:58:54.878Z,65.50
2023-03-03T06:03:57.705Z,58.00
2023-03-03T06:09:00.460Z,66.93
2023-03-03T06:14:04.424Z,60.47
2023-03-03T06:19:07.123Z,61.83
2023-03-03T06:24:10.315Z,71.83
2023-03-03T06:29:15.691Z,62.63
2023-03-03T06:34:18.600Z,62.87
2023-03-03T06:39:21.286Z,61.10
2023-03-03T06:44:27.106Z,60.00
2023-03-03T06:49:33.807Z,67.73
2023-03-03T06:54:36.690Z,59.70
2023-03-03T06:59:42.248Z,70.27
2023-03-03T07:04:45.502Z,59.70
2023-03-03T07:09:50.160Z,63.33
2023-03-03T07:15:02.808Z,60.63
2023-03-03T07:20:16.244Z,56.33
2023-03-03T07:25:32.587Z,54.30
2023-03-03T07:30:37.037Z,50.93
2023-03-03T07:35:43.492Z,45.93
2023-03-03T07:40:49.901Z,48.60
2023-03-03T07:45:54.195Z,44.43
2023-03-03T07:51:12.661Z,46.53
2023-03-03T07:56:18.337Z,48.13
2023-03-03T08:01:40.334Z,48.97
2023-03-03T08:06:50.334Z,49.93
2023-03-03T08:11:55.755Z,46.80
2023-03-03T08:17:01.662Z,45.30
2023-03-03T08:22:14.768Z,41.00
2023-03-03T08:27:17.406Z,44.77
2023-03-03T08:32:21.462Z,35.27
2023-03-03T08:37:24.226Z,36.00
2023-03-03T08:42:26.960Z,35.23
2023-03-03T08:47:30.976Z,34.57
2023-03-03T08:52:34.316Z,33.57
2023-03-03T08:57:37.347Z,30.23
2023-03-03T09:02:41.330Z,25.30
2023-03-03T09:07:47.619Z,28.67
2023-03-03T09:12:50.678Z,25.17
2023-03-03T09:17:55.237Z,26.93
2023-03-03T09:22:57.889Z,26.17
2023-03-03T09:28:00.705Z,21.40
2023-03-03T09:33:21.937Z,20.23
2023-03-03T09:38:29.298Z,20.13
2023-03-03T09:43:38.737Z,27.03
2023-03-03T09:48:57.191Z,21.00
2023-03-03T09:54:18.408Z,20.10
2023-03-03T09:59:35.777Z,17.10
2023-03-03T10:04:47.669Z,18.30
2023-03-03T10:10:07.004Z,15.73
2023-03-03T10:15:22.887Z,18.73
2023-03-03T10:20:49.461Z,15.23
2023-03-03T10:26:03.986Z,15.00
2023-03-03T10:31:18.671Z,16.87
2023-03-03T10:36:35.820Z,14.00
2023-03-03T10:41:50.929Z,11.87
2023-03-03T10:47:04.184Z,12.33
2023-03-03T10:52:26.714Z,13.03
2023-03-03T10:57:37.397Z,14.07
2023-03-03T11:02:47.174Z,14.77
2023-03-03T11:07:57.454Z,13.53
2023-03-03T11:13:11.265Z,11.33
2023-03-03T11:18:32.400Z,12.33
2023-03-03T11:23:54.359Z,10.73
2023-03-03T11:29:19.664Z,10.80
2023-03-03T11:34:41.575Z,10.63
2023-03-03T11:39:46.161Z,10.77
2023-03-03T11:44:52.817Z,11.13
2023-03-03T11:50:01.721Z,11.00
2023-03-03T11:55:12.920Z,12.20
2023-03-03T12:00:32.834Z,13.53
2023-03-03T12:05:45.226Z,10.97
2023-03-03T12:10:56.314Z,10.80
2023-03-03T12:16:08.342Z,11.83
2023-03-03T12:21:28.704Z,11.00
2023-03-03T12:26:43.273Z,9.33
2023-03-03T12:31:54.568Z,9.80
2023-03-03T12:37:08.740Z,10.00
2023-03-03T12:42:20.531Z,9.23
2023-03-03T12:47:29.332Z,7.23
2023-03-03T12:52:40.977Z,7.77
2023-03-03T12:57:53.632Z,6.97
2023-03-03T13:03:02.933Z,7.17
2023-03-03T13:08:31.218Z,8.20
2023-03-03T13:13:40.028Z,8.23
2023-03-03T13:18:53.042Z,8.30
2023-03-03T13:24:03.010Z,8.30
2023-03-03T13:29:15.247Z,8.30
2023-03-03T13:34:26.575Z,9.90
2023-03-03T13:39:34.576Z,9.50
2023-03-03T13:44:42.732Z,11.80
2023-03-03T13:49:55.944Z,9.93
2023-03-03T13:55:20.575Z,8.40
2023-03-03T14:00:37.558Z,10.47
2023-03-03T14:05:45.813Z,13.30
2023-03-03T14:10:56.424Z,9.40
2023-03-03T14:16:06.413Z,11.83
2023-03-03T14:21:14.541Z,13.57
2023-03-03T14:26:17.348Z,12.00
2023-03-03T14:31:24.871Z,10.97
2023-03-03T14:36:32.030Z,12.37
2023-03-03T14:41:41.095Z,10.97
2023-03-03T14:46:45.323Z,10.53
2023-03-03T14:51:49.887Z,12.87
2023-03-03T14:57:01.036Z,11.77
2023-03-03T15:02:36.070Z,10.37
2023-03-03T15:07:40.056Z,12.83
2023-03-03T15:12:43.600Z,11.07
2023-03-03T15:17:57.859Z,12.47
2023-03-03T15:23:24.216Z,10.83
2023-03-03T15:28:43.020Z,13.83
2023-03-03T15:33:54.167Z,13.10
2023-03-03T15:39:10.915Z,13.23
2023-03-03T15:44:24.402Z,11.17
2023-03-03T15:49:49.358Z,17.23
2023-03-03T15:55:07.288Z,17.70
2023-03-03T16:00:34.833Z,16.40
2023-03-03T16:05:47.124Z,17.63
2023-03-03T16:11:03.586Z,19.50
2023-03-03T16:16:16.972Z,23.10
2023-03-03T16:21:34.408Z,23.97
2023-03-03T16:26:44.507Z,26.63
2023-03-03T16:31:52.856Z,25.53
2023-03-03T16:37:04.389Z,25.80
2023-03-03T16:42:21.364Z,29.13
2023-03-03T16:47:42.405Z,38.13
2023-03-03T16:52:50.578Z,39.73
2023-03-03T16:58:03.330Z,32.87
2023-03-03T17:03:39.530Z,33.30
2023-03-03T17:09:08.879Z,36.13
2023-03-03T17:14:23.279Z,37.83
2023-03-03T17:19:40.076Z,40.57
2023-03-03T17:24:53.011Z,38.57
2023-03-03T17:30:04.271Z,34.83
2023-03-03T17:35:18.587Z,31.63
2023-03-03T17:40:47.568Z,35.73
2023-03-03T17:45:54.608Z,36.13
2023-03-03T17:51:11.817Z,39.73
2023-03-03T17:56:22.285Z,44.07
2023-03-03T18:01:39.948Z,41.93
2023-03-03T18:07:26.127Z,46.87
2023-03-03T18:12:43.521Z,45.10
2023-03-03T18:18:04.855Z,45.57
2023-03-03T18:23:42.419Z,50.67
2023-03-03T18:28:48.819Z,48.63
2023-03-03T22:03:32.676Z,66.63
2023-03-03T22:08:35.381Z,68.73
2023-03-03T22:13:39.929Z,69.40
2023-03-03T22:18:43.939Z,67.50
2023-03-03T22:23:46.721Z,77.03
2023-03-03T22:28:49.672Z,74.50
2023-03-03T22:33:53.803Z,74.93
2023-03-03T22:38:56.482Z,76.27
2023-03-03T22:43:59.183Z,75.60
2023-03-03T22:49:03.315Z,81.17
2023-03-03T22:54:06.153Z,69.40
2023-03-03T22:59:08.921Z,63.50
2023-03-03T23:04:12.937Z,58.40
2023-03-03T23:09:15.764Z,54.70
2023-03-03T23:14:18.450Z,54.77
2023-03-03T23:19:22.409Z,52.60
2023-03-03T23:24:25.166Z,50.00
2023-03-03T23:29:28.053Z,51.40
2023-03-03T23:34:33.045Z,53.63
2023-03-03T23:39:35.809Z,54.30
2023-03-03T23:44:38.584Z,55.67
2023-03-03T23:49:42.671Z,48.07
2023-03-03T23:54:45.369Z,46.23
2023-03-03T23:59:48.200Z,48.43
